Time;durP1;ratioP1;P1;durP2;ratioP2;P2;SDS_P1;SDS_P2;PMS_P1;PMS_P2;Temp;Humidity;BMP_temperature;BMP_pressure;BME280_temperature;BME280_humidity;BME280_pressure;Samples;Min_cycle;Max_cycle;Signal;HPM_P1;HPM_P2
2021/05/22 00:00:19;;;;;;;3.05;1.47;;;;;;;13.98;58.55;98145.67;2186536;81;21354;-76
2021/05/22 00:03:22;;;;;;;2.17;1.40;;;;;;;13.98;58.33;98141.74;2133055;83;20930;-76
2021/05/22 00:06:23;;;;;;;3.27;1.75;;;;;;;14.02;58.02;98142.13;2186671;81;20917;-76
2021/05/22 00:09:24;;;;;;;3.00;1.50;;;;;;;14.02;57.66;98131.63;2149306;83;21050;-75
2021/05/22 00:12:26;;;;;;;1.82;1.42;;;;;;;14.02;57.61;98138.19;2186703;81;20906;-75
2021/05/22 00:15:27;;;;;;;1.67;1.40;;;;;;;14.05;57.33;98132.48;2149072;81;21077;-76
2021/05/22 00:18:28;;;;;;;5.65;1.22;;;;;;;14.06;57.28;98139.46;2186555;81;20946;-75
2021/05/22 00:21:29;;;;;;;2.40;1.62;;;;;;;14.07;56.95;98146.45;2149100;83;21073;-76
2021/05/22 00:24:30;;;;;;;6.92;1.70;;;;;;;14.04;56.99;98157.85;2186680;81;21314;-75
2021/05/22 00:27:31;;;;;;;1.98;1.50;;;;;;;14.04;57.21;98159.16;2149151;83;20930;-75
2021/05/22 00:30:32;;;;;;;5.17;1.85;;;;;;;14.00;58.33;98156.16;2186492;81;20922;-76
2021/05/22 00:33:32;;;;;;;3.65;1.60;;;;;;;13.95;59.17;98154.91;2149135;83;20954;-75
2021/05/22 00:36:33;;;;;;;1.55;1.45;;;;;;;13.88;59.33;98153.23;2186650;81;20958;-75
2021/05/22 00:39:34;;;;;;;2.85;1.75;;;;;;;13.82;59.21;98137.55;2149144;83;21405;-76
2021/05/22 00:42:37;;;;;;;3.58;1.50;;;;;;;13.78;59.21;98121.42;2186471;81;20985;-75
2021/05/22 00:45:38;;;;;;;1.95;1.75;;;;;;;13.78;59.25;98112.23;2149105;81;21137;-76
2021/05/22 00:48:39;;;;;;;1.80;1.65;;;;;;;13.78;58.95;98108.75;2186734;81;20935;-75
2021/05/22 00:51:40;;;;;;;2.00;1.60;;;;;;;13.74;58.67;98113.61;2149236;83;20954;-76
2021/05/22 00:54:41;;;;;;;3.00;1.98;;;;;;;13.70;58.59;98106.22;2186756;81;21053;-75
2021/05/22 00:57:43;;;;;;;1.67;1.55;;;;;;;13.66;58.53;98097.52;2149165;83;21326;-76
2021/05/22 01:00:43;;;;;;;3.12;1.95;;;;;;;13.66;58.74;98100.14;2186575;81;20961;-76
2021/05/22 01:03:45;;;;;;;3.00;1.80;;;;;;;13.67;58.60;98083.97;2149258;83;20965;-77
2021/05/22 01:06:46;;;;;;;4.67;1.90;;;;;;;13.68;58.78;98083.08;2186731;81;21009;-76
2021/05/22 01:09:47;;;;;;;5.20;2.00;;;;;;;13.67;58.62;98090.52;2149277;83;21021;-76
2021/05/22 01:12:48;;;;;;;4.33;2.05;;;;;;;13.68;58.70;98089.64;2186771;81;21255;-77
2021/05/22 01:15:49;;;;;;;3.50;2.17;;;;;;;13.66;58.66;98107.14;2149203;81;21089;-76
2021/05/22 01:18:50;;;;;;;2.50;1.75;;;;;;;13.65;58.58;98101.47;2186760;81;21326;-76
2021/05/22 01:21:51;;;;;;;2.60;1.98;;;;;;;13.63;58.58;98090.14;2149152;83;21030;-77
2021/05/22 01:24:52;;;;;;;2.40;1.90;;;;;;;13.64;58.61;98094.50;2186641;81;21054;-76
2021/05/22 01:27:53;;;;;;;2.27;1.72;;;;;;;13.64;58.77;98094.50;2149361;83;21057;-76
2021/05/22 01:30:54;;;;;;;2.90;1.90;;;;;;;13.63;58.88;98092.31;2186754;81;21305;-76
2021/05/22 01:33:55;;;;;;;3.55;1.90;;;;;;;13.61;58.81;98070.93;2149221;83;21014;-76
2021/05/22 01:36:56;;;;;;;4.35;2.08;;;;;;;13.60;58.89;98082.31;2186582;81;20958;-76
2021/05/22 01:39:57;;;;;;;3.83;2.00;;;;;;;13.57;58.89;98083.66;2149103;83;20971;-76
2021/05/22 01:42:58;;;;;;;4.67;2.30;;;;;;;13.55;58.90;98076.25;2186708;81;20982;-75
2021/05/22 01:45:59;;;;;;;2.92;2.05;;;;;;;13.53;59.00;98068.41;2142126;82;21432;-75
2021/05/22 01:49:00;;;;;;;5.47;2.17;;;;;;;13.51;58.99;98069.31;2169622;82;21385;-76
2021/05/22 01:52:01;;;;;;;4.55;2.33;;;;;;;13.49;59.08;98084.19;2138023;83;20959;-76
2021/05/22 01:55:03;;;;;;;2.27;1.82;;;;;;;13.44;59.26;98089.93;2169587;82;20974;-76
2021/05/22 01:58:04;;;;;;;2.50;1.90;;;;;;;13.43;59.50;98090.82;2137870;83;20947;-76
2021/05/22 02:01:05;;;;;;;4.30;2.10;;;;;;;13.40;59.55;98089.10;2169617;82;20961;-75
2021/05/22 02:04:06;;;;;;;2.10;1.90;;;;;;;13.38;59.68;98090.42;2137845;83;21058;-75
2021/05/22 02:07:07;;;;;;;4.00;1.98;;;;;;;13.35;60.00;98103.56;2169699;82;20946;-76
2021/05/22 02:10:09;;;;;;;5.35;2.10;;;;;;;13.32;59.98;98099.67;2137964;83;21074;-75
2021/05/22 02:13:10;;;;;;;2.55;2.25;;;;;;;13.33;59.89;98089.61;2169680;82;21299;-75
2021/05/22 02:16:11;;;;;;;4.83;2.20;;;;;;;13.37;59.95;98093.94;2137863;82;21073;-76
2021/05/22 02:19:12;;;;;;;3.05;2.02;;;;;;;13.43;59.97;98090.82;2169711;82;20947;-76
2021/05/22 02:22:13;;;;;;;4.65;2.30;;;;;;;13.43;60.05;98085.13;2138063;83;20989;-75
2021/05/22 02:25:14;;;;;;;4.72;2.08;;;;;;;13.47;60.19;98093.83;2169793;82;20939;-76
2021/05/22 02:28:15;;;;;;;3.60;2.35;;;;;;;13.43;59.76;98084.27;2137834;83;21042;-76
2021/05/22 02:31:16;;;;;;;3.42;2.20;;;;;;;13.43;59.85;98081.64;2169598;82;21322;-76
2021/05/22 02:34:18;;;;;;;3.95;2.10;;;;;;;13.41;59.92;98079.04;2137832;83;21010;-75
2021/05/22 02:37:19;;;;;;;2.83;2.12;;;;;;;13.36;60.00;98081.72;2169505;82;20934;-76
2021/05/22 02:40:20;;;;;;;3.17;2.27;;;;;;;13.27;60.31;98070.47;2137743;83;21366;-75
2021/05/22 02:43:21;;;;;;;3.80;2.42;;;;;;;13.14;60.82;98068.39;2169480;82;20982;-76
2021/05/22 02:46:22;;;;;;;4.85;2.40;;;;;;;13.06;61.26;98065.85;2137738;82;21085;-76
2021/05/22 02:49:26;;;;;;;4.80;2.27;;;;;;;13.04;61.37;98074.17;2169541;82;21022;-75
2021/05/22 02:52:27;;;;;;;3.15;2.33;;;;;;;13.06;61.41;98068.47;2137893;83;21070;-75
2021/05/22 02:55:27;;;;;;;4.15;2.47;;;;;;;13.10;61.41;98065.82;2169625;82;20946;-75
2021/05/22 02:58:29;;;;;;;4.83;2.27;;;;;;;13.12;61.31;98057.06;2137916;83;20938;-75
2021/05/22 03:01:29;;;;;;;2.70;2.17;;;;;;;13.15;61.29;98043.92;2169833;82;20962;-78
2021/05/22 03:04:31;;;;;;;3.08;2.02;;;;;;;13.17;61.26;98047.42;2138804;83;21367;-77
2021/05/22 03:07:32;;;;;;;2.50;2.00;;;;;;;13.16;61.28;98045.66;2169968;82;20943;-77
2021/05/22 03:10:33;;;;;;;5.65;2.55;;;;;;;13.14;61.32;98048.73;2138281;83;20999;-77
2021/05/22 03:13:34;;;;;;;4.87;2.80;;;;;;;13.13;61.32;98044.38;2169677;82;21306;-76
2021/05/22 03:16:35;;;;;;;3.30;2.87;;;;;;;13.12;61.59;98043.95;2137812;82;21441;-75
2021/05/22 03:19:35;;;;;;;6.12;2.98;;;;;;;13.10;61.68;98047.03;2169592;82;21318;-76
2021/05/22 03:22:37;;;;;;;5.30;2.85;;;;;;;13.11;61.84;98042.66;2137855;83;20962;-75
2021/05/22 03:25:38;;;;;;;3.87;2.90;;;;;;;13.12;61.98;98033.47;2169486;82;20958;-75
2021/05/22 03:28:39;;;;;;;8.55;2.90;;;;;;;13.13;61.91;98028.66;2137850;82;21393;-75
2021/05/22 03:31:39;;;;;;;3.70;2.65;;;;;;;13.15;61.98;98026.02;2169614;82;20977;-75
2021/05/22 03:34:40;;;;;;;8.28;3.12;;;;;;;13.20;61.85;98039.97;2137950;83;20954;-75
2021/05/22 03:37:41;;;;;;;4.33;3.27;;;;;;;13.31;61.94;98040.72;2169614;82;20939;-75
2021/05/22 03:40:42;;;;;;;7.72;3.67;;;;;;;13.41;61.68;98032.30;2138207;83;21034;-77
2021/05/22 03:43:43;;;;;;;10.88;3.80;;;;;;;14.01;64.57;98034.13;2170253;82;21407;-79
2021/05/22 03:46:44;;;;;;;9.48;3.55;;;;;;;15.09;62.96;98039.81;2138079;82;21014;-79
2021/05/22 03:49:45;;;;;;;15.28;3.90;;;;;;;16.11;61.83;98039.03;2170016;82;21271;-79
2021/05/22 03:52:46;;;;;;;6.70;3.52;;;;;;;16.73;60.01;98041.98;2137882;83;20998;-77
2021/05/22 03:55:47;;;;;;;9.50;3.27;;;;;;;16.69;56.06;98033.73;2169575;82;20987;-76
2021/05/22 03:58:49;;;;;;;3.50;2.77;;;;;;;15.87;56.08;98036.05;2138070;83;21050;-76
2021/05/22 04:01:50;;;;;;;6.05;2.90;;;;;;;15.26;56.97;98033.33;2169456;82;20978;-77
2021/05/22 04:04:51;;;;;;;4.22;3.00;;;;;;;14.81;57.76;98031.12;2137786;82;21055;-75
2021/05/22 04:07:52;;;;;;;4.10;3.02;;;;;;;14.49;58.49;98034.27;2169631;82;20950;-76
2021/05/22 04:10:53;;;;;;;5.47;3.40;;;;;;;14.27;59.01;98035.48;2137722;83;20947;-75
2021/05/22 04:13:55;;;;;;;6.58;4.08;;;;;;;14.12;59.67;98037.03;2169607;82;20927;-77
2021/05/22 04:16:56;;;;;;;6.45;3.40;;;;;;;14.00;59.96;98044.19;2137713;82;21136;-76
2021/05/22 04:19:56;;;;;;;5.87;3.50;;;;;;;13.94;60.45;98037.72;2169661;82;20975;-76
2021/05/22 04:22:57;;;;;;;7.47;3.67;;;;;;;13.90;60.84;98033.41;2137747;83;20981;-76
2021/05/22 04:25:58;;;;;;;5.28;3.87;;;;;;;13.87;61.09;98042.64;2169793;82;20986;-79
2021/05/22 04:28:59;;;;;;;5.37;3.40;;;;;;;13.89;62.43;98042.17;2138235;83;21039;-78
2021/05/22 04:32:00;;;;;;;10.35;3.80;;;;;;;15.05;63.97;98041.63;2169806;82;21287;-78
2021/05/22 04:35:01;;;;;;;8.63;3.77;;;;;;;16.22;61.79;98044.91;2138159;83;21014;-76
2021/05/22 04:38:02;;;;;;;4.97;3.50;;;;;;;16.92;58.72;98051.59;2169783;82;21311;-77
2021/05/22 04:41:03;;;;;;;5.90;4.10;;;;;;;16.60;57.05;98049.74;2137881;83;21002;-76
2021/05/22 04:44:04;;;;;;;7.22;3.77;;;;;;;16.15;56.84;98045.95;2169957;82;20931;-78
2021/05/22 04:47:05;;;;;;;5.90;3.77;;;;;;;15.77;57.32;98044.19;2145616;81;21148;-76
2021/05/22 04:50:06;;;;;;;4.92;3.72;;;;;;;15.54;58.13;98048.55;2186562;81;20946;-77
2021/05/22 04:53:07;;;;;;;6.97;3.92;;;;;;;15.59;58.19;98043.64;2149200;83;21042;-76
2021/05/22 04:56:08;;;;;;;5.92;4.42;;;;;;;15.78;58.20;98038.89;2186632;81;21021;-76
2021/05/22 04:59:09;;;;;;;5.85;3.37;;;;;;;16.06;57.86;98033.01;2149268;83;20946;-76
2021/05/22 05:02:10;;;;;;;6.55;3.62;;;;;;;16.38;57.33;98033.56;2186771;81;21013;-76
2021/05/22 05:05:11;;;;;;;4.35;3.40;;;;;;;16.71;56.46;98026.66;2149193;83;20946;-77
2021/05/22 05:08:12;;;;;;;4.83;2.90;;;;;;;17.02;56.01;98031.98;2186650;81;20923;-77
2021/05/22 05:11:13;;;;;;;5.00;2.30;;;;;;;17.26;55.14;98021.22;2149055;83;21311;-76
2021/05/22 05:14:14;;;;;;;7.00;2.62;;;;;;;17.53;54.14;98029.70;2186755;81;20969;-78
2021/05/22 05:17:15;;;;;;;12.05;3.27;;;;;;;17.76;53.53;98033.02;2149872;81;20990;-81
2021/05/22 05:20:16;;;;;;;13.32;2.80;;;;;;;17.95;53.10;98032.01;2187451;81;21389;-79
2021/05/22 05:23:17;;;;;;;667.55;60.65;;;;;;;18.01;52.98;98031.82;2149669;83;20981;-77
2021/05/22 05:26:18;;;;;;;11.88;3.20;;;;;;;18.04;52.30;98029.09;2186915;81;20933;-80
2021/05/22 05:29:19;;;;;;;9.28;2.95;;;;;;;18.03;52.44;98036.59;2150245;83;20966;-80
2021/05/22 05:32:21;;;;;;;5.72;2.45;;;;;;;18.18;52.01;98038.77;2187853;81;20982;-80
2021/05/22 05:35:22;;;;;;;7.25;3.62;;;;;;;18.16;51.88;98040.59;2150573;83;21381;-79
2021/05/22 05:38:23;;;;;;;3.58;2.40;;;;;;;18.18;51.67;98056.39;2187860;81;20958;-80
2021/05/22 05:41:24;;;;;;;5.85;2.58;;;;;;;18.26;50.91;98061.88;2150313;83;21017;-80
2021/05/22 05:44:25;;;;;;;6.00;2.25;;;;;;;18.24;51.04;98039.92;2187691;81;20922;-80
2021/05/22 05:47:26;;;;;;;5.72;2.25;;;;;;;18.36;50.76;98031.61;2150324;81;21060;-79
2021/05/22 05:50:27;;;;;;;13.85;2.80;;;;;;;18.63;50.45;98028.55;2187365;81;20946;-78
2021/05/22 05:53:28;;;;;;;6.67;2.30;;;;;;;18.82;50.14;98027.47;2150041;83;20950;-81
2021/05/22 05:56:29;;;;;;;2.58;1.90;;;;;;;19.12;49.20;98030.86;2187706;81;20981;-81
2021/05/22 05:59:30;;;;;;;5.80;1.85;;;;;;;19.29;48.01;98036.41;2150100;83;21418;-78
2021/05/22 06:02:32;;;;;;;3.35;2.10;;;;;;;19.44;47.76;98031.03;2187577;81;21017;-79
2021/05/22 06:05:33;;;;;;;2.90;1.85;;;;;;;19.58;47.14;98034.52;2150507;83;21183;-80
2021/05/22 06:08:34;;;;;;;5.40;1.92;;;;;;;19.90;47.19;98036.81;2187538;81;20941;-83
2021/05/22 06:11:37;;;;;;;2.58;2.00;;;;;;;20.04;46.24;98037.64;2150548;83;21029;-81
2021/05/22 06:14:40;;;;;;;3.53;2.63;;;;;;;19.88;45.93;98027.20;2187966;81;21019;-80
2021/05/22 06:17:40;;;;;;;2.70;1.85;;;;;;;19.59;46.39;98019.91;2150313;82;21069;-80
2021/05/22 06:20:41;;;;;;;5.55;2.40;;;;;;;19.36;47.19;98014.56;2187698;81;21298;-81
2021/05/22 06:23:42;;;;;;;6.15;2.47;;;;;;;19.26;47.99;98020.66;2150256;83;20954;-80
2021/05/22 06:26:43;;;;;;;12.55;3.12;;;;;;;19.15;48.26;98024.59;2187616;81;21018;-79
2021/05/22 06:29:44;;;;;;;18.20;3.22;;;;;;;18.99;48.28;98030.40;2150283;83;21013;-80
2021/05/22 06:32:45;;;;;;;9.05;2.20;;;;;;;18.84;48.85;98026.95;2187823;81;20994;-81
2021/05/22 06:35:46;;;;;;;6.92;2.85;;;;;;;18.75;49.31;98028.59;2150202;83;21018;-80
2021/05/22 06:38:47;;;;;;;5.17;2.55;;;;;;;18.72;49.52;98034.84;2187712;81;20930;-80
2021/05/22 06:41:49;;;;;;;10.78;3.50;;;;;;;18.79;49.61;98048.72;2150188;83;21041;-80
2021/05/22 06:44:58;;;;;;;2.83;2.50;;;;;;;18.65;50.70;98044.36;2187672;81;20945;-80
2021/05/22 06:47:55;;;;;;;5.50;2.47;;;;;;;18.44;51.51;98056.00;2149747;81;21069;-79
2021/05/22 06:50:56;;;;;;;4.87;2.02;;;;;;;18.18;51.57;98058.58;2187572;81;20973;-81
2021/05/22 06:53:57;;;;;;;6.70;3.05;;;;;;;17.98;51.71;98068.88;2150209;83;20927;-80
2021/05/22 06:56:58;;;;;;;5.05;3.17;;;;;;;17.75;51.70;98071.75;2187712;81;20950;-81
2021/05/22 06:59:59;;;;;;;7.12;3.47;;;;;;;17.61;52.20;98080.48;2150303;83;21041;-80
2021/05/22 07:03:00;;;;;;;10.45;3.22;;;;;;;17.49;52.45;98093.56;2187583;81;21025;-80
2021/05/22 07:06:02;;;;;;;6.12;2.72;;;;;;;17.29;52.66;98097.17;2150235;83;21017;-80
2021/05/22 07:09:03;;;;;;;10.50;3.55;;;;;;;17.12;52.91;98092.34;2187690;81;20950;-80
2021/05/22 07:12:04;;;;;;;8.58;2.95;;;;;;;16.99;53.46;98082.16;2150056;83;20946;-80
2021/05/22 07:15:05;;;;;;;5.87;2.60;;;;;;;16.91;53.84;98062.59;2187359;81;20940;-80
2021/05/22 07:18:06;;;;;;;2.55;2.12;;;;;;;16.96;54.32;98031.70;2149850;81;21076;-79
2021/05/22 07:21:07;;;;;;;11.55;2.98;;;;;;;17.14;54.40;98032.52;2187204;81;20966;-80
2021/05/22 07:24:09;;;;;;;7.67;2.85;;;;;;;17.30;54.44;98061.11;2149804;83;20998;-80
2021/05/22 07:27:11;;;;;;;14.30;4.33;;;;;;;17.30;54.00;98062.43;2187070;81;20998;-78
2021/05/22 07:30:14;;;;;;;3.33;2.85;;;;;;;17.20;54.16;98073.23;2150013;83;21022;-80
2021/05/22 07:33:15;;;;;;;8.15;2.90;;;;;;;17.13;54.34;98075.63;2187460;81;21021;-82
2021/05/22 07:36:17;;;;;;;5.45;2.77;;;;;;;17.00;54.77;98075.53;2149954;83;21070;-80
2021/05/22 07:39:17;;;;;;;8.93;3.08;;;;;;;16.91;55.28;98079.72;2187328;81;21322;-78
2021/05/22 07:42:19;;;;;;;4.92;2.85;;;;;;;16.81;56.03;98084.36;2149613;83;21073;-80
2021/05/22 07:45:19;;;;;;;4.87;2.60;;;;;;;16.75;56.57;98087.60;2187298;81;20911;-79
2021/05/22 07:48:20;;;;;;;8.45;2.80;;;;;;;16.72;57.55;98082.41;2149879;83;21038;-80
2021/05/22 07:51:24;;;;;;;5.53;3.47;;;;;;;16.65;57.50;98088.70;2187261;81;20942;-79
2021/05/22 07:54:26;;;;;;;;;;;;;;;16.49;57.86;98094.34;2152394;83;20931;-79
2021/05/22 07:57:27;;;;;;;64.00;38.05;;;;;;;16.27;58.26;98102.29;2187181;81;20118;-79
2021/05/22 08:00:28;;;;;;;129.65;67.85;;;;;;;16.03;58.36;98097.57;2149991;83;21385;-80
2021/05/22 08:03:29;;;;;;;103.95;53.08;;;;;;;15.87;58.86;98090.45;2187595;81;21427;-80
2021/05/22 08:06:30;;;;;;;14.45;8.73;;;;;;;15.76;59.41;98095.94;2150341;83;21001;-80
2021/05/22 08:09:31;;;;;;;9.08;6.17;;;;;;;15.71;59.55;98087.28;2150354;82;21303;-80
2021/05/22 08:12:32;;;;;;;9.83;5.85;;;;;;;15.75;60.01;98081.50;2150458;82;21037;-80
2021/05/22 08:15:33;;;;;;;8.58;5.72;;;;;;;15.80;60.05;98079.19;2150104;83;20949;-81
2021/05/22 08:18:34;;;;;;;6.78;3.92;;;;;;;15.95;59.66;98070.55;2150008;83;21085;-79
2021/05/22 08:21:35;;;;;;;7.53;3.83;;;;;;;16.23;59.49;98067.27;2150247;82;20974;-80
2021/05/22 08:24:36;;;;;;;14.93;8.05;;;;;;;16.30;59.46;98069.30;2150221;82;21022;-79
2021/05/22 08:27:37;;;;;;;8.63;5.50;;;;;;;16.33;59.40;98066.59;2150238;83;20939;-79
2021/05/22 08:30:38;;;;;;;9.48;4.87;;;;;;;16.36;58.50;98062.58;2150429;83;20934;-80
2021/05/22 08:33:39;;;;;;;16.37;6.42;;;;;;;16.35;59.51;98059.98;2150420;82;20926;-80
2021/05/22 08:36:40;;;;;;;9.00;5.10;;;;;;;16.30;57.57;98054.81;2150508;82;20930;-81
2021/05/22 08:39:44;;;;;;;23.98;10.38;;;;;;;16.31;57.60;98057.86;2149941;83;20974;-78
2021/05/22 08:42:45;;;;;;;8.15;5.15;;;;;;;16.23;57.52;98058.05;2187283;81;21037;-79
2021/05/22 08:45:46;;;;;;;14.73;10.58;;;;;;;16.09;57.72;98065.39;2149895;83;21310;-79
2021/05/22 08:48:47;;;;;;;8.13;5.10;;;;;;;16.11;57.81;98071.94;2171907;81;21050;-79
2021/05/22 08:51:48;;;;;;;10.25;4.62;;;;;;;15.83;57.55;98084.39;2170456;82;21326;-79
2021/05/22 08:54:49;;;;;;;9.20;4.78;;;;;;;15.50;58.21;98092.46;2170041;82;20998;-78
2021/05/22 08:57:50;;;;;;;42.62;25.57;;;;;;;15.26;58.77;98089.86;2170015;82;21275;-78
2021/05/22 09:00:53;;;;;;;44.18;28.95;;;;;;;15.15;58.69;98085.70;2170198;82;20986;-77
2021/05/22 09:03:54;;;;;;;17.25;10.35;;;;;;;15.08;58.42;98089.33;2169905;82;20966;-78
2021/05/22 09:06:55;;;;;;;20.97;15.08;;;;;;;15.02;58.63;98085.50;2112207;84;20974;-79
2021/05/22 09:09:56;;;;;;;21.15;10.65;;;;;;;14.92;59.35;98094.86;2112000;84;21353;-78
2021/05/22 09:12:57;;;;;;;9.85;6.62;;;;;;;14.81;60.00;98109.94;2148423;83;20950;-78
2021/05/22 09:15:57;;;;;;;22.60;12.58;;;;;;;14.61;60.25;98111.55;2112153;84;20938;-79
2021/05/22 09:18:58;;;;;;;9.88;5.95;;;;;;;14.43;60.77;98109.20;2111974;84;21342;-79
2021/05/22 09:21:59;;;;;;;20.50;13.78;;;;;;;14.31;61.63;98111.98;2112172;84;20977;-78
2021/05/22 09:25:00;;;;;;;16.27;13.30;;;;;;;14.14;62.44;98117.48;2111950;84;20979;-79
2021/05/22 09:28:01;;;;;;;18.75;10.13;;;;;;;13.98;63.85;98122.51;2148489;83;21022;-79
2021/05/22 09:31:02;;;;;;;19.15;15.30;;;;;;;13.82;64.05;98115.69;2112054;84;20941;-79
2021/05/22 09:34:03;;;;;;;8.93;5.50;;;;;;;13.67;64.48;98108.88;2112329;84;20942;-78
2021/05/22 09:37:04;;;;;;;7.80;4.28;;;;;;;13.55;65.94;98098.54;2148144;83;20912;-78
2021/05/22 09:40:05;;;;;;;14.03;12.20;;;;;;;13.43;67.40;98106.10;2111889;84;20986;-78
2021/05/22 09:43:06;;;;;;;9.18;4.78;;;;;;;13.28;67.47;98107.58;2112281;84;20981;-81
2021/05/22 09:46:08;;;;;;;18.87;13.20;;;;;;;13.09;68.61;98108.19;2112944;84;21043;-81
2021/05/22 09:49:09;;;;;;;21.12;15.80;;;;;;;13.03;68.25;98112.17;2147278;82;21041;-81
2021/05/22 09:52:10;;;;;;;18.05;13.10;;;;;;;13.00;69.50;98111.76;2187585;81;20957;-81
2021/05/22 09:55:11;;;;;;;13.55;9.13;;;;;;;12.98;69.99;98108.70;2150230;83;21029;-81
2021/05/22 09:58:12;;;;;;;21.57;10.55;;;;;;;12.98;70.56;98111.31;2150254;83;20942;-80
2021/05/22 10:01:13;;;;;;;28.32;13.68;;;;;;;12.94;70.48;98109.61;2187747;81;21002;-83
2021/05/22 10:04:14;;;;;;;35.03;19.52;;;;;;;12.95;69.27;98097.80;2150169;83;20938;-82
2021/05/22 10:07:15;;;;;;;11.05;7.42;;;;;;;13.01;69.26;98104.77;2187919;81;20986;-81
2021/05/22 10:10:16;;;;;;;15.18;10.43;;;;;;;12.92;69.74;98101.77;2150450;83;21334;-82
2021/05/22 10:13:18;;;;;;;13.60;8.60;;;;;;;12.80;70.12;98100.56;2187656;81;20930;-83
2021/05/22 10:16:19;;;;;;;8.75;6.00;;;;;;;12.71;70.17;98102.82;2150315;83;20915;-81
2021/05/22 10:19:20;;;;;;;17.55;8.48;;;;;;;12.63;70.31;98097.22;2188057;81;21013;-83
2021/05/22 10:22:21;;;;;;;13.83;6.90;;;;;;;12.59;70.68;98104.23;2150143;83;21322;-83
2021/05/22 10:25:22;;;;;;;9.03;5.90;;;;;;;12.63;70.84;98105.95;2187562;81;21326;-83
2021/05/22 10:28:23;;;;;;;8.55;4.62;;;;;;;12.54;71.50;98116.48;2149864;83;21045;-82
2021/05/22 10:31:24;;;;;;;6.45;4.85;;;;;;;12.47;72.15;98117.86;2187626;81;21049;-81
2021/05/22 10:34:25;;;;;;;22.80;6.72;;;;;;;12.43;71.87;98119.63;2149859;83;21318;-83
2021/05/22 10:37:26;;;;;;;16.93;9.53;;;;;;;12.44;72.54;98125.29;2187447;81;21006;-82
2021/05/22 10:40:26;;;;;;;23.22;12.00;;;;;;;12.47;72.75;98123.95;2149814;83;20930;-82
2021/05/22 10:43:27;;;;;;;20.43;12.05;;;;;;;12.62;73.57;98129.08;2187272;81;21424;-83
2021/05/22 10:46:29;;;;;;;19.50;4.90;;;;;;;12.80;72.86;98128.50;2149737;83;20930;-82
2021/05/22 10:49:30;;;;;;;12.50;5.30;;;;;;;12.88;72.79;98141.09;2139295;82;21453;-84
2021/05/22 10:52:31;;;;;;;11.53;7.12;;;;;;;12.85;72.20;98138.50;2138470;83;20943;-82
2021/05/22 10:55:32;;;;;;;16.87;10.55;;;;;;;12.84;72.30;98147.23;2138728;83;20991;-83
2021/05/22 10:58:32;;;;;;;21.00;10.13;;;;;;;12.86;72.85;98152.02;2170497;82;20908;-81
2021/05/22 11:01:37;;;;;;;20.43;8.53;;;;;;;12.80;72.38;98159.48;2138513;83;20971;-83
2021/05/22 11:04:38;;;;;;;6.15;4.08;;;;;;;12.82;72.47;98166.02;2138697;83;21018;-83
2021/05/22 11:07:39;;;;;;;5.47;2.85;;;;;;;12.82;72.68;98172.13;2138671;83;21010;-83
2021/05/22 11:10:40;;;;;;;5.67;3.52;;;;;;;12.76;73.01;98170.43;2138631;83;21154;-82
2021/05/22 11:13:41;;;;;;;13.58;5.40;;;;;;;12.69;73.01;98171.36;2138613;83;21331;-82
2021/05/22 11:16:41;;;;;;;15.23;3.92;;;;;;;12.72;72.96;98175.70;2138656;83;20952;-83
2021/05/22 11:19:42;;;;;;;13.85;4.45;;;;;;;12.73;72.70;98173.07;2138530;83;21038;-83
2021/05/22 11:22:49;;;;;;;6.25;2.83;;;;;;;12.79;72.92;98176.08;2138453;83;20967;-85
2021/05/22 11:25:50;;;;;;;9.98;3.15;;;;;;;12.88;73.08;98179.07;2138424;83;20958;-80
2021/05/22 11:28:51;;;;;;;11.80;5.78;;;;;;;12.95;72.69;98172.91;2138501;83;21438;-80
2021/05/22 11:31:52;;;;;;;6.58;2.77;;;;;;;13.08;72.92;98171.95;2138704;83;21394;-81
2021/05/22 11:34:53;;;;;;;11.28;3.40;;;;;;;13.33;73.15;98172.17;2138726;83;20919;-80
2021/05/22 11:37:54;;;;;;;11.00;4.72;;;;;;;13.56;72.37;98164.52;2138982;83;20923;-79
2021/05/22 11:40:55;;;;;;;11.18;5.10;;;;;;;13.77;72.16;98170.83;2138909;83;20915;-81
2021/05/22 11:43:56;;;;;;;8.40;4.80;;;;;;;13.91;71.81;98170.70;2138995;83;21426;-83
2021/05/22 11:46:57;;;;;;;8.93;3.58;;;;;;;13.94;71.06;98166.28;2138598;83;20923;-82
2021/05/22 11:49:58;;;;;;;8.03;3.77;;;;;;;13.92;70.83;98166.75;2150061;83;21062;-84
2021/05/22 11:52:58;;;;;;;19.00;3.92;;;;;;;13.94;70.67;98164.97;2149803;83;20934;-82
2021/05/22 11:56:00;;;;;;;7.60;4.30;;;;;;;13.91;70.99;98165.45;2150023;82;21422;-84
2021/05/22 11:59:01;;;;;;;11.65;4.70;;;;;;;13.82;71.18;98165.09;2149984;82;20981;-82
2021/05/22 12:02:03;;;;;;;9.70;4.70;;;;;;;13.84;71.02;98156.75;2150163;82;21437;-82
2021/05/22 12:05:04;;;;;;;11.08;6.45;;;;;;;13.84;70.18;98155.89;2149984;82;21002;-80
2021/05/22 12:08:05;;;;;;;11.25;4.10;;;;;;;13.75;70.98;98152.93;2150240;82;20946;-81
2021/05/22 12:11:06;;;;;;;11.45;5.12;;;;;;;13.90;70.81;98158.47;2150053;83;20942;-83
2021/05/22 12:14:07;;;;;;;8.58;5.22;;;;;;;13.94;70.76;98151.85;2150221;82;20954;-83
2021/05/22 12:17:08;;;;;;;14.60;5.50;;;;;;;14.19;70.90;98158.09;2150019;83;20966;-82
2021/05/22 12:20:09;;;;;;;4.78;3.72;;;;;;;14.22;70.77;98154.11;2150130;82;21148;-82
2021/05/22 12:23:09;;;;;;;5.50;4.05;;;;;;;14.30;69.62;98154.88;2150080;83;20955;-82
2021/05/22 12:26:10;;;;;;;14.73;4.53;;;;;;;14.24;69.88;98157.59;2149831;83;21049;-83
2021/05/22 12:29:11;;;;;;;8.95;4.80;;;;;;;14.27;70.20;98159.72;2149983;82;21045;-80
2021/05/22 12:32:12;;;;;;;7.95;4.05;;;;;;;14.43;69.97;98160.85;2149967;83;21022;-81
2021/05/22 12:35:16;;;;;;;6.80;4.87;;;;;;;14.24;69.64;98154.52;2150255;82;21031;-83
2021/05/22 12:38:17;;;;;;;5.75;4.22;;;;;;;14.24;69.64;98154.52;2150142;82;21351;-82
2021/05/22 12:41:19;;;;;;;7.03;4.58;;;;;;;14.02;68.50;98157.88;2149952;83;20941;-82
2021/05/22 12:44:20;;;;;;;6.17;3.37;;;;;;;14.01;69.26;98160.07;2150328;82;20978;-81
2021/05/22 12:47:23;;;;;;;10.23;5.22;;;;;;;14.01;69.16;98148.70;2149888;82;20954;-83
2021/05/22 12:50:24;;;;;;;11.95;4.55;;;;;;;14.11;69.22;98143.77;2150105;82;21089;-82
2021/05/22 12:53:24;;;;;;;14.28;4.65;;;;;;;14.24;69.32;98141.84;2150112;83;20930;-82
2021/05/22 12:56:25;;;;;;;10.65;3.30;;;;;;;14.28;68.23;98144.84;2150135;83;20927;-80
2021/05/22 12:59:26;;;;;;;15.58;3.90;;;;;;;14.46;68.54;98138.05;2149852;82;20983;-81
2021/05/22 13:02:28;;;;;;;15.35;4.67;;;;;;;14.73;67.81;98134.57;2149617;82;21022;-81
2021/05/22 13:05:28;;;;;;;6.15;3.60;;;;;;;14.99;67.06;98128.47;2149923;82;21059;-82
2021/05/22 13:08:30;;;;;;;3.87;3.00;;;;;;;15.13;67.24;98120.34;2150100;83;21003;-81
2021/05/22 13:11:30;;;;;;;5.25;2.65;;;;;;;15.24;66.46;98121.02;2149949;82;21001;-83
2021/05/22 13:14:31;;;;;;;2.55;2.35;;;;;;;15.24;65.62;98116.63;2149947;82;20922;-82
2021/05/22 13:17:32;;;;;;;3.33;2.35;;;;;;;15.42;66.11;98102.27;2149965;83;20939;-81
2021/05/22 13:20:34;;;;;;;2.05;1.80;;;;;;;15.88;65.22;98098.77;2150115;82;20994;-80
2021/05/22 13:23:35;;;;;;;11.80;2.45;;;;;;;16.20;62.65;98105.96;2149859;82;20954;-82
2021/05/22 13:26:36;;;;;;;3.52;2.50;;;;;;;16.48;62.05;98100.95;2149777;82;21002;-80
2021/05/22 13:29:37;;;;;;;2.80;2.40;;;;;;;16.58;61.54;98105.56;2150123;82;20942;-81
2021/05/22 13:32:38;;;;;;;5.53;3.10;;;;;;;16.69;60.90;98104.88;2150100;83;20906;-83
2021/05/22 13:35:39;;;;;;;4.30;3.20;;;;;;;16.74;60.85;98105.64;2150199;83;20919;-81
2021/05/22 13:38:40;;;;;;;4.30;2.60;;;;;;;16.87;61.26;98106.61;2150037;82;21330;-82
2021/05/22 13:41:41;;;;;;;2.33;2.00;;;;;;;16.95;59.44;98098.51;2149879;83;20962;-81
2021/05/22 13:44:42;;;;;;;2.52;2.08;;;;;;;16.88;59.15;98094.30;2150062;82;21438;-79
2021/05/22 13:47:43;;;;;;;3.72;1.82;;;;;;;16.90;58.16;98099.08;2148968;81;21033;-79
2021/05/22 13:50:44;;;;;;;6.50;2.47;;;;;;;16.78;58.97;98108.16;2138418;83;21401;-79
2021/05/22 13:53:44;;;;;;;10.68;2.83;;;;;;;16.73;58.83;98109.17;2137928;83;20927;-79
2021/05/22 13:56:45;;;;;;;5.42;2.80;;;;;;;16.49;59.86;98110.59;2138053;83;20939;-79
2021/05/22 13:59:46;;;;;;;2.55;2.20;;;;;;;16.25;60.18;98110.22;2138128;83;20954;-78
2021/05/22 14:02:47;;;;;;;2.65;2.40;;;;;;;16.33;59.82;98098.20;2138475;83;21326;-80
2021/05/22 14:05:48;;;;;;;3.22;2.47;;;;;;;16.60;60.35;98097.17;2138780;83;20965;-79
2021/05/22 14:08:49;;;;;;;2.60;2.40;;;;;;;16.75;59.07;98091.11;2138588;83;21019;-79